Time;durP1;ratioP1;P1;durP2;ratioP2;P2;SDS_P1;SDS_P2;PMS_P1;PMS_P2;Temp;Humidity;BMP_temperature;BMP_pressure;BME280_temperature;BME280_humidity;BME280_pressure;Samples;Min_cycle;Max_cycle;Signal;HPM_P1;HPM_P2
2022/02/24 00:00:44;;;;;;;5.32;2.40;;;;;;;-1.82;100.00;93425.38;2115079;28;20051;-81
2022/02/24 00:01:45;;;;;;;4.15;2.05;;;;;;;-1.86;100.00;93426.34;2098147;28;20047;-83
2022/02/24 00:02:47;;;;;;;2.97;2.30;;;;;;;-1.83;100.00;93428.34;2098549;28;20119;-81
2022/02/24 00:03:48;;;;;;;3.45;2.55;;;;;;;-1.78;100.00;93425.47;2098511;28;20024;-83
2022/02/24 00:04:49;;;;;;;2.83;2.40;;;;;;;-1.73;100.00;93421.88;2106528;28;20017;-82
2022/02/24 00:05:53;;;;;;;2.97;2.25;;;;;;;-1.78;100.00;93420.25;2106714;28;20024;-80
2022/02/24 00:06:54;;;;;;;2.30;2.10;;;;;;;-1.76;100.00;93423.28;2114443;28;20093;-81
2022/02/24 00:08:32;;;;;;;2.55;2.13;;;;;;;-1.78;100.00;93415.75;2098259;28;20025;-81
2022/02/24 00:09:33;;;;;;;2.40;2.20;;;;;;;-1.82;100.00;93411.50;2108732;28;20023;-82
2022/02/24 00:10:34;;;;;;;2.97;2.00;;;;;;;-1.89;100.00;93419.16;2089577;28;20375;-82
2022/02/24 00:11:35;;;;;;;3.72;2.30;;;;;;;-1.82;100.00;93414.13;2089206;28;20048;-82
2022/02/24 00:12:37;;;;;;;2.63;2.22;;;;;;;-1.83;100.00;93415.22;2097835;28;20035;-82
2022/02/24 00:13:38;;;;;;;4.60;2.10;;;;;;;-1.82;100.00;93409.66;2098066;28;20521;-80
2022/02/24 00:14:39;;;;;;;3.92;2.25;;;;;;;-1.82;100.00;93414.91;2104207;28;20020;-81
2022/02/24 00:15:40;;;;;;;4.00;2.55;;;;;;;-1.88;100.00;93410.22;2106441;28;20016;-82
2022/02/24 00:16:41;;;;;;;4.50;2.70;;;;;;;-1.89;100.00;93412.09;2098010;28;20491;-83
2022/02/24 00:17:43;;;;;;;2.67;2.05;;;;;;;-1.91;100.00;93408.25;2093508;28;20017;-81
2022/02/24 00:18:44;;;;;;;3.70;2.42;;;;;;;-1.86;100.00;93414.03;2089613;28;20024;-81
2022/02/24 00:19:45;;;;;;;3.20;2.20;;;;;;;-1.90;100.00;93412.41;2097735;28;20685;-82
2022/02/24 00:20:46;;;;;;;4.43;2.50;;;;;;;-1.87;100.00;93409.88;2097558;28;20028;-81
2022/02/24 00:21:47;;;;;;;2.50;2.30;;;;;;;-1.84;100.00;93411.84;2106142;28;20409;-81
2022/02/24 00:22:48;;;;;;;2.95;2.40;;;;;;;-1.80;100.00;93412.72;2106404;28;20509;-82
2022/02/24 00:23:49;;;;;;;2.95;2.42;;;;;;;-1.69;100.00;93418.25;2105153;28;20020;-83
2022/02/24 00:24:50;;;;;;;3.00;2.38;;;;;;;-1.66;100.00;93416.84;2106400;28;20144;-82
2022/02/24 00:25:51;;;;;;;3.20;2.65;;;;;;;-1.67;100.00;93418.69;2114900;27;20069;-82
2022/02/24 00:26:52;;;;;;;3.75;2.60;;;;;;;-1.74;100.00;93415.09;2123086;27;20027;-82
2022/02/24 00:27:53;;;;;;;2.90;2.55;;;;;;;-1.80;100.00;93407.47;2106345;28;20035;-81
2022/02/24 00:28:54;;;;;;;3.80;2.80;;;;;;;-1.77;100.00;93412.03;2098199;28;20039;-82
2022/02/24 00:29:55;;;;;;;2.95;2.40;;;;;;;-1.76;100.00;93410.19;2106182;28;20027;-81
2022/02/24 00:30:56;;;;;;;3.85;2.30;;;;;;;-1.78;100.00;93415.00;2103683;28;20028;-82
2022/02/24 00:31:57;;;;;;;2.58;2.35;;;;;;;-1.71;100.00;93407.34;2097906;28;20773;-81
2022/02/24 00:32:58;;;;;;;2.97;2.33;;;;;;;-1.72;100.00;93412.91;2103813;28;20051;-82
2022/02/24 00:33:59;;;;;;;4.38;2.17;;;;;;;-1.71;100.00;93412.59;2114854;28;20027;-81
2022/02/24 00:35:00;;;;;;;3.33;2.55;;;;;;;-1.74;100.00;93417.72;2098249;28;20036;-81
2022/02/24 00:36:01;;;;;;;3.28;2.50;;;;;;;-1.68;100.00;93416.41;2089680;28;20048;-82
2022/02/24 00:37:03;;;;;;;3.17;2.60;;;;;;;-1.70;100.00;93415.97;2089560;28;20033;-82
2022/02/24 00:38:12;;;;;;;3.20;2.60;;;;;;;-1.74;100.00;93410.63;2098227;28;20529;-81
2022/02/24 00:39:13;;;;;;;3.45;2.50;;;;;;;-1.65;100.00;93413.13;2099011;28;20028;-82
2022/02/24 00:40:14;;;;;;;4.25;2.63;;;;;;;-1.68;100.00;93414.53;2106259;28;20122;-82
2022/02/24 00:41:15;;;;;;;3.60;2.50;;;;;;;-1.70;100.00;93406.25;2105958;28;20461;-82
2022/02/24 00:42:16;;;;;;;5.45;2.80;;;;;;;-1.74;100.00;93410.63;2106023;28;20020;-80
2022/02/24 00:43:17;;;;;;;4.70;2.60;;;;;;;-1.71;100.00;93406.56;2097688;28;20028;-81
2022/02/24 00:44:18;;;;;;;3.90;2.65;;;;;;;-1.68;100.00;93403.28;2106131;28;20024;-81
2022/02/24 00:45:19;;;;;;;3.17;2.50;;;;;;;-1.64;100.00;93406.78;2114752;28;20024;-82
2022/02/24 00:46:20;;;;;;;3.13;2.38;;;;;;;-1.68;100.00;93413.78;2106170;28;20648;-83
2022/02/24 00:47:21;;;;;;;6.13;2.67;;;;;;;-1.73;100.00;93406.91;2106130;28;20024;-82
2022/02/24 00:48:22;;;;;;;4.07;2.03;;;;;;;-1.69;100.00;93412.25;2096943;28;20071;-81
2022/02/24 00:49:23;;;;;;;6.68;2.60;;;;;;;-1.67;100.00;93405.56;2094721;28;20032;-82
2022/02/24 00:50:25;;;;;;;3.25;2.78;;;;;;;-1.74;100.00;93396.78;2106864;28;20024;-82
2022/02/24 00:51:26;;;;;;;4.97;2.53;;;;;;;-1.72;100.00;93405.81;2106307;28;20381;-82
2022/02/24 00:52:27;;;;;;;2.67;2.35;;;;;;;-1.69;100.00;93399.16;2097916;28;20036;-81
2022/02/24 00:53:28;;;;;;;2.58;2.20;;;;;;;-1.66;100.00;93401.13;2097834;28;20024;-82
2022/02/24 00:54:29;;;;;;;4.80;2.60;;;;;;;-1.74;100.00;93394.91;2089618;28;20020;-81
2022/02/24 00:55:30;;;;;;;2.72;2.22;;;;;;;-1.76;100.00;93394.47;2106199;28;20094;-82
2022/02/24 00:56:31;;;;;;;2.25;2.00;;;;;;;-1.75;100.00;93397.88;2106156;28;20069;-82
2022/02/24 00:57:32;;;;;;;4.53;2.38;;;;;;;-1.69;100.00;93386.81;2106237;28;20476;-81
2022/02/24 00:58:40;;;;;;;3.85;2.05;;;;;;;-1.67;100.00;93389.84;2114532;28;20024;-81
2022/02/24 00:59:41;;;;;;;3.85;2.45;;;;;;;-1.74;100.00;93389.66;2108686;28;20020;-81
2022/02/24 01:00:42;;;;;;;2.83;2.42;;;;;;;-1.75;100.00;93392.63;2092138;28;20021;-83
2022/02/24 01:01:43;;;;;;;3.53;2.20;;;;;;;-1.68;100.00;93390.19;2096209;28;20073;-81
2022/02/24 01:02:44;;;;;;;2.67;2.05;;;;;;;-1.74;100.00;93389.66;2106235;28;20019;-81
2022/02/24 01:03:46;;;;;;;3.60;2.50;;;;;;;-1.79;100.00;93387.28;2106072;28;20020;-81
2022/02/24 01:04:47;;;;;;;3.10;2.38;;;;;;;-1.74;100.00;93389.66;2105930;28;20073;-82
2022/02/24 01:05:48;;;;;;;2.30;2.10;;;;;;;-1.82;100.00;93383.44;2097756;28;20044;-81
2022/02/24 01:06:48;;;;;;;4.00;2.35;;;;;;;-1.80;100.00;93380.50;2097602;28;20039;-82
2022/02/24 01:07:49;;;;;;;3.33;2.40;;;;;;;-1.81;100.00;93384.22;2089503;28;20017;-83
2022/02/24 01:08:50;;;;;;;2.95;2.17;;;;;;;-1.76;100.00;93381.38;2091541;28;20128;-82
2022/02/24 01:09:51;;;;;;;2.53;2.10;;;;;;;-1.81;100.00;93381.59;2106074;28;20480;-83
2022/02/24 01:10:52;;;;;;;2.85;2.33;;;;;;;-1.79;100.00;93372.31;2097521;28;20025;-82
2022/02/24 01:11:53;;;;;;;3.35;2.33;;;;;;;-1.80;100.00;93380.50;2097691;28;20404;-82
2022/02/24 01:12:54;;;;;;;4.78;2.22;;;;;;;-1.72;100.00;93379.59;2097812;28;20025;-82
2022/02/24 01:13:55;;;;;;;5.03;2.45;;;;;;;-1.79;100.00;93382.03;2097650;28;20024;-82
2022/02/24 01:14:58;;;;;;;4.05;2.47;;;;;;;-1.82;100.00;93377.47;2097666;28;20054;-81
2022/02/24 01:15:59;;;;;;;2.92;2.22;;;;;;;-1.86;100.00;93376.59;2098134;28;20047;-81
2022/02/24 01:17:00;;;;;;;3.38;2.10;;;;;;;-1.86;100.00;93379.22;2106030;28;20020;-82
2022/02/24 01:18:01;;;;;;;3.35;2.10;;;;;;;-1.78;100.00;93378.31;2106142;28;20027;-81
2022/02/24 01:19:02;;;;;;;2.95;2.30;;;;;;;-1.77;100.00;93377.22;2097646;28;20466;-81
2022/02/24 01:20:04;;;;;;;2.85;2.20;;;;;;;-1.82;100.00;93375.59;2097606;28;20020;-82
2022/02/24 01:21:06;;;;;;;3.63;2.20;;;;;;;-1.87;100.00;93370.59;2098094;28;20028;-81
2022/02/24 01:22:06;;;;;;;3.15;2.20;;;;;;;-1.91;100.00;93377.59;2106008;28;20054;-81
2022/02/24 01:23:07;;;;;;;4.00;2.22;;;;;;;-1.95;100.00;93374.09;2106061;28;20357;-82
2022/02/24 01:24:08;;;;;;;2.60;2.00;;;;;;;-1.93;100.00;93369.31;2106151;28;20058;-81
2022/02/24 01:25:09;;;;;;;2.83;2.10;;;;;;;-1.90;100.00;93376.47;2114354;28;20023;-80
2022/02/24 01:26:10;;;;;;;3.08;2.08;;;;;;;-1.91;100.00;93384.69;2105943;28;20028;-82
2022/02/24 01:27:11;;;;;;;2.30;1.95;;;;;;;-1.84;100.00;93377.03;2097625;28;20067;-82
2022/02/24 01:28:12;;;;;;;3.22;2.25;;;;;;;-1.89;100.00;93372.78;2089480;28;20025;-83
2022/02/24 01:29:13;;;;;;;2.80;2.03;;;;;;;-1.90;100.00;93373.09;2106068;28;20113;-81
2022/02/24 01:30:14;;;;;;;2.30;1.80;;;;;;;-1.82;100.00;93375.59;2105885;28;20027;-83
2022/02/24 01:31:15;;;;;;;2.67;2.22;;;;;;;-1.88;100.00;93369.06;2097628;28;20017;-83
2022/02/24 01:32:16;;;;;;;2.38;2.00;;;;;;;-1.87;100.00;93364.59;2105910;28;20027;-81
2022/02/24 01:33:18;;;;;;;3.08;1.92;;;;;;;-1.90;100.00;93363.38;2097607;28;20388;-81
2022/02/24 01:34:19;;;;;;;2.40;2.08;;;;;;;-1.91;100.00;93366.34;2097724;28;20032;-81
2022/02/24 01:35:20;;;;;;;2.17;1.80;;;;;;;-1.88;100.00;93363.06;2102370;28;20535;-82
2022/02/24 01:36:21;;;;;;;2.70;1.98;;;;;;;-1.85;100.00;93362.38;2097437;28;20070;-83
2022/02/24 01:37:22;;;;;;;2.65;2.13;;;;;;;-1.91;100.00;93355.88;2097602;28;20456;-81
2022/02/24 01:38:23;;;;;;;2.47;1.92;;;;;;;-1.87;100.00;93354.13;2105899;28;20556;-83
2022/02/24 01:39:42;;;;;;;2.95;2.00;;;;;;;-1.80;100.00;93343.81;2103321;28;20036;-82
2022/02/24 01:40:43;;;;;;;2.03;1.63;;;;;;;-1.89;100.00;93343.97;2110696;27;20036;-81
2022/02/24 01:41:44;;;;;;;2.97;2.15;;;;;;;-1.84;100.00;93337.75;2113850;28;20023;-83
2022/02/24 01:42:45;;;;;;;4.45;2.03;;;;;;;-1.87;100.00;93336.53;2105652;28;20028;-82
2022/02/24 01:43:47;;;;;;;3.13;2.13;;;;;;;-1.91;100.00;93340.16;2105816;28;20020;-81
2022/02/24 01:44:48;;;;;;;2.00;1.77;;;;;;;-1.87;100.00;93327.91;2097833;28;20020;-82
2022/02/24 01:45:49;;;;;;;2.33;1.70;;;;;;;-1.90;100.00;93328.56;2097576;28;20315;-82
2022/02/24 01:46:51;;;;;;;2.35;1.80;;;;;;;-1.96;100.00;93333.28;2105780;28;20028;-81
2022/02/24 01:47:51;;;;;;;1.80;1.48;;;;;;;-1.92;100.00;93330.78;2105915;28;20019;-83
2022/02/24 01:48:52;;;;;;;3.63;1.92;;;;;;;-1.86;100.00;93329.44;2097556;28;20157;-82
2022/02/24 01:49:53;;;;;;;2.58;1.52;;;;;;;-1.91;100.00;93324.44;2097566;28;20035;-83
2022/02/24 01:50:55;;;;;;;1.73;1.63;;;;;;;-1.97;100.00;93323.91;2097532;28;20082;-82
2022/02/24 01:51:56;;;;;;;3.72;1.88;;;;;;;-2.00;100.00;93326.41;2105910;27;20131;-82
2022/02/24 01:52:58;;;;;;;1.90;1.70;;;;;;;-1.95;100.00;93318.31;2114139;28;20568;-83
2022/02/24 01:53:59;;;;;;;2.28;1.58;;;;;;;-1.92;100.00;93315.06;2105395;28;20020;-83
2022/02/24 01:55:01;;;;;;;2.47;2.00;;;;;;;-1.99;100.00;93320.09;2097138;28;20029;-83
2022/02/24 01:56:04;;;;;;;1.67;1.52;;;;;;;-1.95;100.00;93320.94;2106152;27;20442;-81
2022/02/24 01:57:05;;;;;;;2.20;1.60;;;;;;;-1.97;100.00;93313.44;2114403;28;20562;-83
2022/02/24 01:58:07;;;;;;;3.25;1.92;;;;;;;-1.95;100.00;93310.47;2105778;28;20024;-81
2022/02/24 01:59:08;;;;;;;2.70;1.58;;;;;;;-1.95;100.00;93313.84;2106188;27;20818;-81
2022/02/24 02:00:12;;;;;;;1.70;1.60;;;;;;;-1.98;100.00;93309.25;2105421;28;20112;-82
2022/02/24 02:01:13;;;;;;;2.22;1.70;;;;;;;-1.94;100.00;93306.75;2097997;28;20784;-83
2022/02/24 02:02:15;;;;;;;2.65;1.88;;;;;;;-1.95;100.00;93308.63;2097230;28;20028;-83
2022/02/24 02:03:16;;;;;;;2.65;1.50;;;;;;;-1.95;100.00;93310.47;2097428;28;20024;-83
2022/02/24 02:04:17;;;;;;;2.20;1.73;;;;;;;-1.99;100.00;93296.50;2105728;28;20436;-82
2022/02/24 02:05:18;;;;;;;3.00;1.73;;;;;;;-1.98;100.00;93301.41;2122471;27;20043;-83
2022/02/24 02:06:18;;;;;;;3.97;1.77;;;;;;;-2.04;100.00;93303.50;2114065;28;20503;-82
2022/02/24 02:07:21;;;;;;;1.83;1.73;;;;;;;-1.97;100.00;93302.19;2097492;28;20028;-82
2022/02/24 02:08:23;;;;;;;2.35;1.55;;;;;;;-1.95;100.00;93297.38;2097986;28;20451;-83
2022/02/24 02:09:24;;;;;;;2.17;1.45;;;;;;;-1.94;100.00;93298.91;2097562;28;20028;-82
2022/02/24 02:10:25;;;;;;;1.98;1.50;;;;;;;-1.93;100.00;93301.19;2105604;28;20043;-82
2022/02/24 02:11:26;;;;;;;2.28;1.98;;;;;;;-1.97;100.00;93297.72;2096844;28;20076;-82
2022/02/24 02:12:27;;;;;;;5.07;2.33;;;;;;;-1.98;100.00;93296.16;2097486;28;20405;-81
2022/02/24 02:13:35;;;;;;;1.90;1.70;;;;;;;-1.94;100.00;93299.66;2105487;28;20048;-81
2022/02/24 02:14:37;;;;;;;4.15;1.60;;;;;;;-1.88;100.00;93290.47;2115052;27;20031;-81
2022/02/24 02:15:38;;;;;;;2.45;1.83;;;;;;;-1.77;100.00;93293.38;2113964;28;20517;-81
2022/02/24 02:16:46;;;;;;;1.85;1.50;;;;;;;-1.85;100.00;93295.03;2114147;28;20047;-81
2022/02/24 02:17:47;;;;;;;4.10;2.00;;;;;;;-1.79;100.00;93292.97;2114026;28;20209;-82
2022/02/24 02:18:48;;;;;;;1.63;1.42;;;;;;;-1.81;100.00;93289.91;2105491;28;20106;-81
2022/02/24 02:19:49;;;;;;;4.25;1.92;;;;;;;-1.72;100.00;93293.13;2102914;28;20041;-82
2022/02/24 02:20:51;;;;;;;2.70;1.50;;;;;;;-1.73;100.00;93290.88;2104779;28;20020;-82
2022/02/24 02:21:52;;;;;;;1.83;1.60;;;;;;;-1.82;100.00;93288.38;2114830;28;20520;-82
2022/02/24 02:22:54;;;;;;;3.88;2.10;;;;;;;-1.78;100.00;93284.00;2113916;28;20119;-82
2022/02/24 02:23:55;;;;;;;2.38;1.90;;;;;;;-1.85;100.00;93287.19;2097449;28;20381;-80
2022/02/24 02:25:03;;;;;;;2.92;2.00;;;;;;;-1.90;100.00;93279.56;2089824;28;20041;-82
2022/02/24 02:26:04;;;;;;;2.45;1.88;;;;;;;-1.91;100.00;93280.66;2098788;28;20391;-82
2022/02/24 02:27:05;;;;;;;2.13;1.70;;;;;;;-1.90;100.00;93276.19;2100076;28;20032;-82
2022/02/24 02:28:06;;;;;;;2.08;1.40;;;;;;;-1.90;100.00;93274.31;2097380;28;20028;-81
2022/02/24 02:29:12;;;;;;;1.85;1.60;;;;;;;-1.82;100.00;93276.03;2097224;28;20028;-81
2022/02/24 02:30:13;;;;;;;2.08;1.70;;;;;;;-1.82;100.00;93270.03;2106122;28;20020;-81
2022/02/24 02:31:19;;;;;;;1.45;1.35;;;;;;;-1.86;100.00;93269.19;2113691;28;20152;-81
2022/02/24 02:32:20;;;;;;;1.90;1.58;;;;;;;-1.83;100.00;93274.53;2122493;28;20034;-80
2022/02/24 02:33:21;;;;;;;2.60;2.17;;;;;;;-1.79;100.00;93272.00;2122388;28;20042;-81
2022/02/24 02:34:22;;;;;;;2.25;1.92;;;;;;;-1.81;100.00;93272.31;2119019;28;20023;-80
2022/02/24 02:35:23;;;;;;;2.53;1.60;;;;;;;-1.90;100.00;93266.47;2105557;28;20062;-81
2022/02/24 02:36:24;;;;;;;6.72;2.10;;;;;;;-1.88;100.00;93264.28;2097048;28;20048;-81
2022/02/24 02:37:25;;;;;;;2.38;1.63;;;;;;;-1.96;100.00;93264.44;2096807;28;20349;-81
2022/02/24 02:38:27;;;;;;;3.47;1.65;;;;;;;-2.01;100.00;93264.66;2089187;28;20029;-81
2022/02/24 02:39:28;;;;;;;2.97;1.65;;;;;;;-2.01;100.00;93265.44;2097437;28;20485;-82
2022/02/24 02:40:30;;;;;;;3.90;2.20;;;;;;;-1.96;100.00;93267.06;2105624;28;20020;-81
2022/02/24 02:41:33;;;;;;;2.72;1.75;;;;;;;-1.97;100.00;93265.53;2105723;28;20020;-81
2022/02/24 02:42:34;;;;;;;3.15;1.83;;;;;;;-1.97;100.00;93260.28;2105736;28;20020;-81
2022/02/24 02:43:35;;;;;;;3.13;1.75;;;;;;;-1.86;100.00;93263.94;2119392;28;20111;-82
2022/02/24 02:44:36;;;;;;;3.65;1.65;;;;;;;-1.91;100.00;93258.94;2127982;27;20030;-80
2022/02/24 02:45:38;;;;;;;1.70;1.55;;;;;;;-1.89;100.00;93254.13;2113922;28;20357;-81
2022/02/24 02:46:39;;;;;;;2.97;1.92;;;;;;;-1.94;100.00;93257.00;2113450;28;20145;-81
2022/02/24 02:47:40;;;;;;;2.50;1.70;;;;;;;-1.79;100.00;93256.28;2097714;28;20024;-82
2022/02/24 02:48:42;;;;;;;2.17;1.60;;;;;;;-1.83;100.00;93253.56;2105794;28;20034;-81
2022/02/24 02:49:43;;;;;;;2.45;1.73;;;;;;;-1.91;100.00;93251.09;2105348;28;20392;-82
2022/02/24 02:50:44;;;;;;;2.13;1.75;;;;;;;-1.95;100.00;93253.59;2105503;28;20024;-82
2022/02/24 02:51:45;;;;;;;2.20;1.70;;;;;;;-1.87;100.00;93249.34;2113949;28;20019;-81
2022/02/24 02:52:46;;;;;;;3.72;2.15;;;;;;;-1.87;100.00;93239.63;2109647;28;20016;-82
2022/02/24 02:53:47;;;;;;;2.10;1.90;;;;;;;-1.86;100.00;93246.38;2096905;28;20032;-81
2022/02/24 02:54:53;;;;;;;2.47;1.55;;;;;;;-1.85;100.00;93242.66;2097151;28;20464;-82
2022/02/24 02:55:54;;;;;;;2.03;1.80;;;;;;;-1.83;100.00;93240.47;2097643;28;20404;-82
2022/02/24 02:56:54;;;;;;;2.38;1.88;;;;;;;-1.78;100.00;93247.31;2097222;28;20038;-81
2022/02/24 02:58:02;;;;;;;2.33;1.95;;;;;;;-1.77;100.00;93241.75;2105516;28;20031;-81
2022/02/24 02:59:10;;;;;;;2.95;1.90;;;;;;;-1.71;100.00;93244.13;2098034;28;20675;-82
2022/02/24 03:00:15;;;;;;;2.38;1.50;;;;;;;-1.59;100.00;93246.69;2090743;28;20021;-80
2022/02/24 03:01:16;;;;;;;3.97;2.10;;;;;;;-1.64;100.00;93239.06;2098141;28;20020;-81
2022/02/24 03:02:17;;;;;;;2.53;1.98;;;;;;;-1.60;100.00;93245.16;2105704;28;20498;-81
2022/02/24 03:03:18;;;;;;;4.57;1.80;;;;;;;-1.51;100.00;93240.53;2105369;28;20123;-82
2022/02/24 03:04:23;;;;;;;3.13;1.85;;;;;;;-1.66;100.00;93239.41;2092750;28;20063;-81
2022/02/24 03:05:24;;;;;;;2.83;1.80;;;;;;;-1.77;100.00;93233.88;2106237;28;20431;-82
2022/02/24 03:06:25;;;;;;;2.83;1.77;;;;;;;-1.84;100.00;93248.66;2107004;28;20077;-81
2022/02/24 03:07:26;;;;;;;2.92;1.98;;;;;;;-1.66;100.00;93244.66;2107025;28;20056;-82
2022/02/24 03:08:27;;;;;;;2.20;2.00;;;;;;;-1.52;100.00;93239.78;2107055;28;20074;-81
2022/02/24 03:09:29;;;;;;;2.10;1.77;;;;;;;-1.63;100.00;93238.72;2098725;28;20036;-81
2022/02/24 03:10:31;;;;;;;2.78;1.80;;;;;;;-1.72;100.00;93247.84;2098860;28;20462;-82
2022/02/24 03:11:31;;;;;;;3.20;2.22;;;;;;;-1.87;100.00;93239.63;2098421;28;20123;-81
2022/02/24 03:12:36;;;;;;;3.78;1.70;;;;;;;-1.96;100.00;93235.63;2087908;28;20032;-82
2022/02/24 03:13:37;;;;;;;2.30;1.90;;;;;;;-1.92;100.00;93236.47;2107024;28;20421;-81
2022/02/24 03:14:38;;;;;;;3.03;1.90;;;;;;;-1.92;100.00;93232.00;2106389;28;20028;-80
2022/02/24 03:15:41;;;;;;;2.58;1.95;;;;;;;-1.95;100.00;93234.50;2098629;28;20020;-80
2022/02/24 03:16:42;;;;;;;2.08;1.85;;;;;;;-1.77;100.00;93238.38;2098770;28;20035;-81
2022/02/24 03:17:44;;;;;;;1.77;1.50;;;;;;;-1.69;100.00;93234.06;2098582;28;20496;-81
2022/02/24 03:18:45;;;;;;;1.98;1.83;;;;;;;-1.75;100.00;93230.94;2090640;28;20057;-81
2022/02/24 03:19:46;;;;;;;2.25;1.73;;;;;;;-1.73;100.00;93227.97;2098514;28;20078;-82
2022/02/24 03:20:47;;;;;;;4.80;2.28;;;;;;;-1.83;100.00;93222.13;2098556;28;20102;-80
2022/02/24 03:21:48;;;;;;;2.58;1.80;;;;;;;-1.91;100.00;93230.13;2090365;28;20112;-83
2022/02/24 03:22:49;;;;;;;3.38;1.90;;;;;;;-1.97;100.00;93228.88;2090192;28;20021;-81
2022/02/24 03:23:50;;;;;;;2.28;1.70;;;;;;;-1.95;100.00;93221.41;2087409;28;20433;-83
2022/02/24 03:24:51;;;;;;;2.88;1.60;;;;;;;-1.87;100.00;93216.03;2098714;28;20453;-81
2022/02/24 03:25:52;;;;;;;2.67;1.80;;;;;;;-1.88;100.00;93221.63;2115092;28;20024;-82
2022/02/24 03:26:53;;;;;;;1.52;1.40;;;;;;;-1.90;100.00;93224.56;2106776;28;20024;-81
2022/02/24 03:27:55;;;;;;;2.50;1.70;;;;;;;-1.87;100.00;93213.41;2107090;28;20107;-81
2022/02/24 03:28:56;;;;;;;2.35;1.88;;;;;;;-1.99;100.00;93223.94;2106906;28;20028;-81
2022/02/24 03:29:57;;;;;;;2.28;1.83;;;;;;;-2.01;100.00;93213.06;2090240;28;20021;-82
2022/02/24 03:30:58;;;;;;;2.10;1.85;;;;;;;-1.99;100.00;93216.09;2088039;28;20498;-80
2022/02/24 03:32:00;;;;;;;2.30;1.70;;;;;;;-1.81;100.00;93217.31;2098349;28;20182;-81
2022/02/24 03:33:03;;;;;;;2.58;1.63;;;;;;;-1.75;100.00;93207.38;2090589;28;20155;-82
2022/02/24 03:34:04;;;;;;;2.47;1.85;;;;;;;-1.77;100.00;93210.31;2090813;28;20021;-80
2022/02/24 03:35:06;;;;;;;2.05;1.85;;;;;;;-1.84;100.00;93212.00;2098347;28;20044;-81
2022/02/24 03:36:07;;;;;;;3.47;1.70;;;;;;;-1.89;100.00;93204.34;2098499;28;20052;-81
2022/02/24 03:37:07;;;;;;;4.65;1.98;;;;;;;-1.97;100.00;93213.16;2090069;28;20021;-81
2022/02/24 03:38:09;;;;;;;2.63;1.60;;;;;;;-1.91;100.00;93209.19;2081817;28;20112;-81
2022/02/24 03:39:10;;;;;;;3.55;1.92;;;;;;;-1.95;100.00;93203.09;2090229;28;20032;-82
2022/02/24 03:40:11;;;;;;;1.90;1.70;;;;;;;-1.99;100.00;93210.84;2106709;28;20027;-81
2022/02/24 03:41:12;;;;;;;2.75;1.60;;;;;;;-2.00;100.00;93211.19;2106743;28;20020;-80
2022/02/24 03:42:13;;;;;;;2.10;1.55;;;;;;;-2.01;100.00;93207.81;2098163;28;20017;-82
2022/02/24 03:43:14;;;;;;;1.90;1.65;;;;;;;-2.01;100.00;93207.06;2098199;28;20027;-81
2022/02/24 03:44:15;;;;;;;3.53;1.85;;;;;;;-2.01;100.00;93204.44;2098207;28;20103;-81
2022/02/24 03:45:17;;;;;;;3.40;1.65;;;;;;;-2.07;100.00;93204.66;2106702;28;20066;-81
2022/02/24 03:46:17;;;;;;;3.45;2.03;;;;;;;-2.06;100.00;93205.44;2089976;28;20234;-80
2022/02/24 03:47:18;;;;;;;2.38;2.13;;;;;;;-2.10;100.00;93212.44;2090469;28;20029;-81
2022/02/24 03:48:19;;;;;;;2.80;1.83;;;;;;;-2.04;100.00;93206.59;2106835;28;20058;-82
2022/02/24 03:49:20;;;;;;;1.77;1.67;;;;;;;-1.98;100.00;93206.38;2099724;28;20361;-81
2022/02/24 03:50:23;;;;;;;2.55;1.90;;;;;;;-1.87;100.00;93204.81;2106717;28;20019;-81
2022/02/24 03:51:24;;;;;;;2.35;1.92;;;;;;;-1.80;100.00;93202.34;2098528;28;20024;-80
2022/02/24 03:52:25;;;;;;;2.70;1.63;;;;;;;-1.81;100.00;93198.97;2098532;28;20413;-81
2022/02/24 03:53:26;;;;;;;1.85;1.50;;;;;;;-1.88;100.00;93203.28;2095458;28;20051;-81
2022/02/24 03:54:26;;;;;;;1.92;1.63;;;;;;;-2.03;100.00;93202.13;2090115;28;20106;-80
2022/02/24 03:55:27;;;;;;;2.13;1.80;;;;;;;-1.97;100.00;93197.44;2098259;28;20029;-81
2022/02/24 03:56:28;;;;;;;3.97;1.70;;;;;;;-1.97;100.00;93198.19;2089872;28;20032;-80
2022/02/24 03:57:29;;;;;;;3.35;1.92;;;;;;;-1.79;100.00;93196.03;2090038;28;20486;-82
2022/02/24 03:58:30;;;;;;;2.95;1.80;;;;;;;-1.85;100.00;93205.97;2106833;28;20052;-82
2022/02/24 03:59:31;;;;;;;1.60;1.50;;;;;;;-1.87;100.00;93202.94;2114886;28;20077;-82
2022/02/24 04:00:32;;;;;;;2.33;1.80;;;;;;;-1.89;100.00;93199.13;2098049;28;20020;-80
2022/02/24 04:01:33;;;;;;;2.53;1.70;;;;;;;-1.92;100.00;93205.03;2098174;28;20020;-80
2022/02/24 04:02:34;;;;;;;2.17;1.98;;;;;;;-1.97;100.00;93202.69;2106734;28;20031;-82
2022/02/24 04:03:35;;;;;;;2.60;1.98;;;;;;;-1.89;100.00;93205.16;2106856;28;20020;-81
2022/02/24 04:04:36;;;;;;;3.75;2.28;;;;;;;-1.91;100.00;93202.09;2098375;28;20074;-81
2022/02/24 04:05:38;;;;;;;2.72;1.90;;;;;;;-1.96;100.00;93193.72;2098649;28;20031;-81
2022/02/24 04:06:39;;;;;;;2.83;1.70;;;;;;;-1.97;100.00;93192.19;2098108;28;20377;-82
2022/02/24 04:07:39;;;;;;;3.25;2.00;;;;;;;-2.08;100.00;93192.66;2106305;28;20035;-81
2022/02/24 04:08:40;;;;;;;2.80;2.10;;;;;;;-2.00;100.00;93187.63;2106456;28;20044;-82
2022/02/24 04:09:41;;;;;;;2.38;2.00;;;;;;;-2.03;100.00;93189.03;2106268;28;20024;-81
2022/02/24 04:10:42;;;;;;;2.63;2.03;;;;;;;-1.97;100.00;93181.72;2098052;28;20024;-81
2022/02/24 04:11:43;;;;;;;2.78;1.83;;;;;;;-1.99;100.00;93186.50;2105975;28;20189;-83
2022/02/24 04:12:44;;;;;;;3.08;2.05;;;;;;;-1.99;100.00;93184.66;2106545;28;20450;-81
2022/02/24 04:13:45;;;;;;;2.97;2.60;;;;;;;-1.92;100.00;93177.00;2106380;28;20028;-81
2022/02/24 04:14:46;;;;;;;3.20;2.47;;;;;;;-1.96;100.00;93173.53;2123432;27;20023;-81
2022/02/24 04:15:49;;;;;;;5.10;2.75;;;;;;;-1.99;100.00;93168.94;2114967;28;20107;-81
2022/02/24 04:16:50;;;;;;;3.30;2.40;;;;;;;-1.98;100.00;93174.94;2098237;28;20154;-82
2022/02/24 04:17:51;;;;;;;4.05;2.55;;;;;;;-2.00;100.00;93169.28;2105807;28;20020;-80
2022/02/24 04:18:52;;;;;;;4.00;2.38;;;;;;;-2.05;100.00;93165.06;2106376;28;20028;-82
2022/02/24 04:19:57;;;;;;;3.53;2.10;;;;;;;-2.10;100.00;93167.91;2098516;28;20036;-80
2022/02/24 04:20:58;;;;;;;2.92;2.30;;;;;;;-1.97;100.00;93166.00;2090557;28;20063;-82
2022/02/24 04:21:59;;;;;;;3.30;2.15;;;;;;;-2.07;100.00;93162.75;2095593;28;20031;-81
2022/02/24 04:23:00;;;;;;;5.00;2.70;;;;;;;-2.04;100.00;93161.34;2089855;28;20424;-82
2022/02/24 04:24:02;;;;;;;2.53;2.10;;;;;;;-2.05;100.00;93160.56;2098184;28;20016;-81
2022/02/24 04:25:03;;;;;;;2.95;2.33;;;;;;;-2.07;100.00;93160.13;2115156;28;20472;-82
2022/02/24 04:26:04;;;;;;;2.78;2.10;;;;;;;-2.10;100.00;93158.19;2114937;27;20059;-82
2022/02/24 04:27:06;;;;;;;3.50;2.08;;;;;;;-2.03;100.00;93162.84;2102933;28;20017;-81
2022/02/24 04:28:07;;;;;;;2.25;2.05;;;;;;;-2.11;100.00;93158.53;2107093;28;20084;-81
2022/02/24 04:29:08;;;;;;;3.22;2.30;;;;;;;-2.14;100.00;93149.50;2106441;28;20400;-81
2022/02/24 04:30:09;;;;;;;2.55;2.15;;;;;;;-2.09;100.00;93157.09;2098067;28;20029;-80
2022/02/24 04:31:10;;;;;;;3.15;2.38;;;;;;;-2.07;100.00;93152.28;2098414;28;20405;-81
2022/02/24 04:32:11;;;;;;;5.38;1.98;;;;;;;-2.15;100.00;93150.59;2097944;28;20032;-82
2022/02/24 04:33:12;;;;;;;2.70;2.17;;;;;;;-2.15;100.00;93142.75;2089702;28;20025;-81
2022/02/24 04:34:13;;;;;;;2.65;2.22;;;;;;;-2.09;100.00;93153.72;2106388;28;20706;-82
2022/02/24 04:35:15;;;;;;;2.80;2.15;;;;;;;-2.15;100.00;93147.19;2123190;27;20050;-82
2022/02/24 04:36:17;;;;;;;5.32;2.13;;;;;;;-2.10;100.00;93139.88;2114152;28;20015;-81
2022/02/24 04:37:19;;;;;;;2.50;2.10;;;;;;;-2.07;100.00;93152.28;2098341;28;20035;-82
2022/02/24 04:38:20;;;;;;;6.32;2.55;;;;;;;-2.14;100.00;93143.50;2098779;27;20024;-82
2022/02/24 04:39:22;;;;;;;4.13;2.60;;;;;;;-2.17;100.00;93141.53;2106349;28;20156;-81
2022/02/24 04:40:22;;;;;;;2.25;2.05;;;;;;;-2.15;100.00;93144.56;2098012;28;20047;-80
2022/02/24 04:41:23;;;;;;;2.05;1.85;;;;;;;-2.14;100.00;93141.63;2089737;28;20051;-81
2022/02/24 04:42:24;;;;;;;3.08;2.00;;;;;;;-2.11;100.00;93138.34;2100476;28;20035;-80
2022/02/24 04:43:25;;;;;;;3.08;2.35;;;;;;;-2.19;100.00;93135.88;2094014;28;20539;-82
2022/02/24 04:44:26;;;;;;;2.95;2.58;;;;;;;-2.21;100.00;93136.22;2103639;28;20899;-81
2022/02/24 04:45:27;;;;;;;4.32;2.15;;;;;;;-2.18;100.00;93135.53;2106328;28;20111;-82
2022/02/24 04:46:28;;;;;;;3.28;2.33;;;;;;;-2.21;100.00;93130.97;2097942;28;20520;-79